Terminal Aerodrome Forecast
Issued by NWS Duluth, MN

Home | Current Version | Previous Version | Text Only | Print | Product List | Glossary On
Versions: 1 2 3 4 5 6 7 8 9 10 11 12 13 14 15 16 17
000
FTUS43 KDLH 231743
TAFINL
TAF
KINL 231743Z 2318/2418 24003KT P6SM OVC035
     FM232100 16006KT P6SM BKN012
      TEMPO 2322/2324 BKN009
     FM240100 18007KT P6SM BKN060
     FM240400 20008KT P6SM BKN200 WS020/24040KT
     FM241200 23006KT 4SM -SHRA BKN024
     FM241500 25009KT 3SM -RA BR BKN007=

USA.gov is the U.S. government's official web portal to all federal, state and local government web resources and services.